sensor_id;sensor_type;location;lat;lon;timestamp;temperature;humidity
4366;DHT22;2196;47.422;9.656;2024-03-22T00:00:05;10.50;99.90
4366;DHT22;2196;47.422;9.656;2024-03-22T00:02:34;10.40;99.90
4366;DHT22;2196;47.422;9.656;2024-03-22T00:05:02;10.40;99.90
4366;DHT22;2196;47.422;9.656;2024-03-22T00:07:29;10.40;99.90
4366;DHT22;2196;47.422;9.656;2024-03-22T00:09:55;10.40;99.90
4366;DHT22;2196;47.422;9.656;2024-03-22T00:12:22;10.40;99.90
4366;DHT22;2196;47.422;9.656;2024-03-22T00:14:48;10.40;99.90
4366;DHT22;2196;47.422;9.656;2024-03-22T00:17:17;10.50;99.90
4366;DHT22;2196;47.422;9.656;2024-03-22T00:19:43;10.50;99.90
4366;DHT22;2196;47.422;9.656;2024-03-22T00:22:11;10.50;99.90
4366;DHT22;2196;47.422;9.656;2024-03-22T00:24:37;10.50;99.90
4366;DHT22;2196;47.422;9.656;2024-03-22T00:27:04;10.40;99.90
4366;DHT22;2196;47.422;9.656;2024-03-22T00:29:30;10.40;99.90
4366;DHT22;2196;47.422;9.656;2024-03-22T00:31:57;10.40;99.90
4366;DHT22;2196;47.422;9.656;2024-03-22T00:34:23;10.30;99.90
4366;DHT22;2196;47.422;9.656;2024-03-22T00:36:50;10.30;99.90
4366;DHT22;2196;47.422;9.656;2024-03-22T00:39:18;10.20;99.90
4366;DHT22;2196;47.422;9.656;2024-03-22T00:41:45;10.20;99.90
4366;DHT22;2196;47.422;9.656;2024-03-22T00:44:11;10.10;99.90
4366;DHT22;2196;47.422;9.656;2024-03-22T00:46:38;10.00;99.90
4366;DHT22;2196;47.422;9.656;2024-03-22T00:49:04;10.00;99.90
4366;DHT22;2196;47.422;9.656;2024-03-22T00:51:31;9.90;99.90
4366;DHT22;2196;47.422;9.656;2024-03-22T00:53:57;9.80;99.90
4366;DHT22;2196;47.422;9.656;2024-03-22T00:56:25;9.80;99.90
4366;DHT22;2196;47.422;9.656;2024-03-22T00:58:51;9.80;99.90
4366;DHT22;2196;47.422;9.656;2024-03-22T01:01:18;9.70;99.90
4366;DHT22;2196;47.422;9.656;2024-03-22T01:03:44;9.70;99.90
4366;DHT22;2196;47.422;9.656;2024-03-22T01:06:12;9.60;99.90
4366;DHT22;2196;47.422;9.656;2024-03-22T01:08:38;9.60;99.90
4366;DHT22;2196;47.422;9.656;2024-03-22T01:11:05;9.60;99.90
4366;DHT22;2196;47.422;9.656;2024-03-22T01:13:32;9.60;99.90
4366;DHT22;2196;47.422;9.656;2024-03-22T01:15:59;9.60;99.90
4366;DHT22;2196;47.422;9.656;2024-03-22T01:18:26;9.60;99.90
4366;DHT22;2196;47.422;9.656;2024-03-22T01:20:53;9.50;99.90
4366;DHT22;2196;47.422;9.656;2024-03-22T01:23:19;9.50;99.90
4366;DHT22;2196;47.422;9.656;2024-03-22T01:25:46;9.40;99.90
4366;DHT22;2196;47.422;9.656;2024-03-22T01:28:12;9.40;99.90
4366;DHT22;2196;47.422;9.656;2024-03-22T01:30:40;9.40;99.90
4366;DHT22;2196;47.422;9.656;2024-03-22T01:33:06;9.40;99.90
4366;DHT22;2196;47.422;9.656;2024-03-22T01:35:33;9.40;99.90
4366;DHT22;2196;47.422;9.656;2024-03-22T01:38:00;9.30;99.90
4366;DHT22;2196;47.422;9.656;2024-03-22T01:40:27;9.20;99.90
4366;DHT22;2196;47.422;9.656;2024-03-22T01:42:53;9.10;99.90
4366;DHT22;2196;47.422;9.656;2024-03-22T01:45:22;9.10;99.90
4366;DHT22;2196;47.422;9.656;2024-03-22T01:47:52;9.00;99.90
4366;DHT22;2196;47.422;9.656;2024-03-22T01:50:21;8.90;99.90
4366;DHT22;2196;47.422;9.656;2024-03-22T01:52:51;8.90;99.90
4366;DHT22;2196;47.422;9.656;2024-03-22T01:55:18;8.80;99.90
4366;DHT22;2196;47.422;9.656;2024-03-22T01:57:44;8.70;99.90
4366;DHT22;2196;47.422;9.656;2024-03-22T02:00:12;8.70;99.90
4366;DHT22;2196;47.422;9.656;2024-03-22T02:02:38;8.70;99.90
4366;DHT22;2196;47.422;9.656;2024-03-22T02:05:13;8.70;99.90
4366;DHT22;2196;47.422;9.656;2024-03-22T02:07:40;8.80;99.90
4366;DHT22;2196;47.422;9.656;2024-03-22T02:10:08;8.70;99.90
4366;DHT22;2196;47.422;9.656;2024-03-22T02:12:36;8.70;99.90
4366;DHT22;2196;47.422;9.656;2024-03-22T02:15:06;8.70;99.90
4366;DHT22;2196;47.422;9.656;2024-03-22T02:17:32;8.70;99.90
4366;DHT22;2196;47.422;9.656;2024-03-22T02:19:59;8.60;99.90
4366;DHT22;2196;47.422;9.656;2024-03-22T02:22:27;8.60;99.90
4366;DHT22;2196;47.422;9.656;2024-03-22T02:24:55;8.60;99.90
4366;DHT22;2196;47.422;9.656;2024-03-22T02:27:21;8.50;99.90
4366;DHT22;2196;47.422;9.656;2024-03-22T02:29:48;8.50;99.90
4366;DHT22;2196;47.422;9.656;2024-03-22T02:32:16;8.50;99.90
4366;DHT22;2196;47.422;9.656;2024-03-22T02:34:43;8.50;99.90
4366;DHT22;2196;47.422;9.656;2024-03-22T02:37:09;8.60;99.90
4366;DHT22;2196;47.422;9.656;2024-03-22T02:39:36;8.60;99.90
4366;DHT22;2196;47.422;9.656;2024-03-22T02:42:04;8.70;99.90
4366;DHT22;2196;47.422;9.656;2024-03-22T02:44:31;8.70;99.90
4366;DHT22;2196;47.422;9.656;2024-03-22T02:46:57;8.60;99.90
4366;DHT22;2196;47.422;9.656;2024-03-22T02:49:25;8.70;99.90
4366;DHT22;2196;47.422;9.656;2024-03-22T02:51:51;8.70;99.90
4366;DHT22;2196;47.422;9.656;2024-03-22T02:54:19;8.70;99.90
4366;DHT22;2196;47.422;9.656;2024-03-22T02:56:45;8.80;99.90
4366;DHT22;2196;47.422;9.656;2024-03-22T02:59:14;8.70;99.90
4366;DHT22;2196;47.422;9.656;2024-03-22T03:01:40;8.70;99.90
4366;DHT22;2196;47.422;9.656;2024-03-22T03:04:07;8.70;99.90
4366;DHT22;2196;47.422;9.656;2024-03-22T03:06:33;8.60;99.90
4366;DHT22;2196;47.422;9.656;2024-03-22T03:09:00;8.60;99.90
4366;DHT22;2196;47.422;9.656;2024-03-22T03:11:26;8.60;99.90
4366;DHT22;2196;47.422;9.656;2024-03-22T03:13:53;8.60;99.90
4366;DHT22;2196;47.422;9.656;2024-03-22T03:16:20;8.50;99.90
4366;DHT22;2196;47.422;9.656;2024-03-22T03:18:47;8.50;99.90
4366;DHT22;2196;47.422;9.656;2024-03-22T03:21:13;8.40;99.90
4366;DHT22;2196;47.422;9.656;2024-03-22T03:23:41;8.40;99.90
4366;DHT22;2196;47.422;9.656;2024-03-22T03:26:06;8.30;99.90
4366;DHT22;2196;47.422;9.656;2024-03-22T03:28:33;8.40;99.90
4366;DHT22;2196;47.422;9.656;2024-03-22T03:30:59;8.30;99.90
4366;DHT22;2196;47.422;9.656;2024-03-22T03:33:28;8.40;99.90
4366;DHT22;2196;47.422;9.656;2024-03-22T03:35:54;8.40;99.90
4366;DHT22;2196;47.422;9.656;2024-03-22T03:38:21;8.40;99.90
4366;DHT22;2196;47.422;9.656;2024-03-22T03:40:47;8.30;99.90
4366;DHT22;2196;47.422;9.656;2024-03-22T03:43:14;8.40;99.90
4366;DHT22;2196;47.422;9.656;2024-03-22T03:45:40;8.50;99.90
4366;DHT22;2196;47.422;9.656;2024-03-22T03:48:07;8.60;99.90
4366;DHT22;2196;47.422;9.656;2024-03-22T03:50:35;8.60;99.90
4366;DHT22;2196;47.422;9.656;2024-03-22T03:53:02;8.60;99.90
4366;DHT22;2196;47.422;9.656;2024-03-22T03:55:28;8.70;99.90
4366;DHT22;2196;47.422;9.656;2024-03-22T03:57:55;8.70;99.90
4366;DHT22;2196;47.422;9.656;2024-03-22T04:00:21;8.70;99.90
4366;DHT22;2196;47.422;9.656;2024-03-22T04:02:49;8.70;99.90
4366;DHT22;2196;47.422;9.656;2024-03-22T04:05:15;8.70;99.90
4366;DHT22;2196;47.422;9.656;2024-03-22T04:07:48;8.60;99.90
4366;DHT22;2196;47.422;9.656;2024-03-22T04:10:14;8.60;99.90
4366;DHT22;2196;47.422;9.656;2024-03-22T04:12:41;8.60;99.90
4366;DHT22;2196;47.422;9.656;2024-03-22T04:15:08;8.60;99.90
4366;DHT22;2196;47.422;9.656;2024-03-22T04:17:35;8.60;99.90
4366;DHT22;2196;47.422;9.656;2024-03-22T04:20:01;8.50;99.90
4366;DHT22;2196;47.422;9.656;2024-03-22T04:24:57;8.60;99.90
4366;DHT22;2196;47.422;9.656;2024-03-22T04:29:50;8.40;99.90
4366;DHT22;2196;47.422;9.656;2024-03-22T04:32:17;8.40;99.90
4366;DHT22;2196;47.422;9.656;2024-03-22T04:34:43;8.40;99.90
4366;DHT22;2196;47.422;9.656;2024-03-22T04:37:10;8.30;99.90
4366;DHT22;2196;47.422;9.656;2024-03-22T04:39:39;8.40;99.90
4366;DHT22;2196;47.422;9.656;2024-03-22T04:42:08;8.50;99.90
4366;DHT22;2196;47.422;9.656;2024-03-22T04:44:35;8.50;99.90
4366;DHT22;2196;47.422;9.656;2024-03-22T04:47:02;8.60;99.90
4366;DHT22;2196;47.422;9.656;2024-03-22T04:49:29;8.60;99.90
4366;DHT22;2196;47.422;9.656;2024-03-22T04:51:55;8.70;99.90
4366;DHT22;2196;47.422;9.656;2024-03-22T04:54:22;8.70;99.90
4366;DHT22;2196;47.422;9.656;2024-03-22T04:56:48;8.70;99.90
4366;DHT22;2196;47.422;9.656;2024-03-22T04:59:16;8.80;99.90
4366;DHT22;2196;47.422;9.656;2024-03-22T05:01:43;8.80;99.90
4366;DHT22;2196;47.422;9.656;2024-03-22T05:04:11;8.80;99.90
4366;DHT22;2196;47.422;9.656;2024-03-22T05:06:37;8.80;99.90
4366;DHT22;2196;47.422;9.656;2024-03-22T05:09:04;8.80;99.90
4366;DHT22;2196;47.422;9.656;2024-03-22T05:11:30;8.60;99.90
4366;DHT22;2196;47.422;9.656;2024-03-22T05:13:57;8.50;99.90
4366;DHT22;2196;47.422;9.656;2024-03-22T05:16:25;8.50;99.90
4366;DHT22;2196;47.422;9.656;2024-03-22T05:18:52;8.50;99.90
4366;DHT22;2196;47.422;9.656;2024-03-22T05:21:17;8.40;99.90
4366;DHT22;2196;47.422;9.656;2024-03-22T05:23:44;8.40;99.90
4366;DHT22;2196;47.422;9.656;2024-03-22T05:26:10;8.30;99.90
4366;DHT22;2196;47.422;9.656;2024-03-22T05:28:37;8.30;99.90
4366;DHT22;2196;47.422;9.656;2024-03-22T05:31:03;8.30;99.90
4366;DHT22;2196;47.422;9.656;2024-03-22T05:33:32;8.40;99.90
4366;DHT22;2196;47.422;9.656;2024-03-22T05:35:58;8.40;99.90
4366;DHT22;2196;47.422;9.656;2024-03-22T05:38:25;8.40;99.90
4366;DHT22;2196;47.422;9.656;2024-03-22T05:40:51;8.50;99.90
4366;DHT22;2196;47.422;9.656;2024-03-22T05:43:18;8.50;99.90
4366;DHT22;2196;47.422;9.656;2024-03-22T05:45:44;8.60;99.90
4366;DHT22;2196;47.422;9.656;2024-03-22T05:48:11;8.70;99.90
4366;DHT22;2196;47.422;9.656;2024-03-22T05:50:38;8.80;99.90
4366;DHT22;2196;47.422;9.656;2024-03-22T05:53:05;8.90;99.90
4366;DHT22;2196;47.422;9.656;2024-03-22T05:55:31;9.00;99.90
4366;DHT22;2196;47.422;9.656;2024-03-22T05:57:58;9.10;99.90
4366;DHT22;2196;47.422;9.656;2024-03-22T06:00:24;9.10;99.90
4366;DHT22;2196;47.422;9.656;2024-03-22T06:02:51;9.30;99.90
4366;DHT22;2196;47.422;9.656;2024-03-22T06:05:17;9.30;99.90
4366;DHT22;2196;47.422;9.656;2024-03-22T06:07:47;9.40;99.90
4366;DHT22;2196;47.422;9.656;2024-03-22T06:10:13;9.50;99.90
4366;DHT22;2196;47.422;9.656;2024-03-22T06:12:40;9.50;99.90
4366;DHT22;2196;47.422;9.656;2024-03-22T06:15:07;9.50;99.90
4366;DHT22;2196;47.422;9.656;2024-03-22T06:17:34;9.50;99.90
4366;DHT22;2196;47.422;9.656;2024-03-22T06:20:00;9.50;99.90
4366;DHT22;2196;47.422;9.656;2024-03-22T06:22:27;9.60;99.90
4366;DHT22;2196;47.422;9.656;2024-03-22T06:24:54;9.90;99.90
4366;DHT22;2196;47.422;9.656;2024-03-22T06:27:21;10.00;99.90
4366;DHT22;2196;47.422;9.656;2024-03-22T06:29:47;10.20;99.90
4366;DHT22;2196;47.422;9.656;2024-03-22T06:32:14;10.70;99.90
4366;DHT22;2196;47.422;9.656;2024-03-22T06:34:40;11.60;99.90
4366;DHT22;2196;47.422;9.656;2024-03-22T06:37:07;12.30;99.90
4366;DHT22;2196;47.422;9.656;2024-03-22T06:39:33;13.00;99.90
4366;DHT22;2196;47.422;9.656;2024-03-22T06:42:02;13.50;99.90
4366;DHT22;2196;47.422;9.656;2024-03-22T06:44:28;13.70;99.90
4366;DHT22;2196;47.422;9.656;2024-03-22T06:46:55;13.80;99.90
4366;DHT22;2196;47.422;9.656;2024-03-22T06:49:21;13.80;99.90
4366;DHT22;2196;47.422;9.656;2024-03-22T06:51:48;13.70;99.90
4366;DHT22;2196;47.422;9.656;2024-03-22T06:54:14;13.60;99.90
4366;DHT22;2196;47.422;9.656;2024-03-22T06:56:40;13.70;99.90
4366;DHT22;2196;47.422;9.656;2024-03-22T06:59:08;13.40;99.90
4366;DHT22;2196;47.422;9.656;2024-03-22T07:01:35;13.20;99.90
4366;DHT22;2196;47.422;9.656;2024-03-22T07:04:01;13.20;99.90
4366;DHT22;2196;47.422;9.656;2024-03-22T07:06:28;13.10;99.90
4366;DHT22;2196;47.422;9.656;2024-03-22T07:08:54;13.30;99.90
4366;DHT22;2196;47.422;9.656;2024-03-22T07:11:21;13.50;99.90
4366;DHT22;2196;47.422;9.656;2024-03-22T07:13:48;13.30;99.90
4366;DHT22;2196;47.422;9.656;2024-03-22T07:16:16;13.20;99.90
4366;DHT22;2196;47.422;9.656;2024-03-22T07:18:43;13.20;99.90
4366;DHT22;2196;47.422;9.656;2024-03-22T07:21:09;13.30;99.90
4366;DHT22;2196;47.422;9.656;2024-03-22T07:23:36;13.60;99.90
4366;DHT22;2196;47.422;9.656;2024-03-22T07:26:02;13.70;99.90
4366;DHT22;2196;47.422;9.656;2024-03-22T07:28:31;13.70;99.90
4366;DHT22;2196;47.422;9.656;2024-03-22T07:30:57;13.70;99.90
4366;DHT22;2196;47.422;9.656;2024-03-22T07:33:25;13.60;99.90
4366;DHT22;2196;47.422;9.656;2024-03-22T07:35:51;13.50;99.90
4366;DHT22;2196;47.422;9.656;2024-03-22T07:38:19;13.80;99.90
4366;DHT22;2196;47.422;9.656;2024-03-22T07:40:45;14.00;99.90
4366;DHT22;2196;47.422;9.656;2024-03-22T07:43:12;14.30;99.90
4366;DHT22;2196;47.422;9.656;2024-03-22T07:45:40;14.70;99.90
4366;DHT22;2196;47.422;9.656;2024-03-22T07:48:07;15.30;99.90
4366;DHT22;2196;47.422;9.656;2024-03-22T07:50:34;15.90;99.90
4366;DHT22;2196;47.422;9.656;2024-03-22T07:53:01;16.20;99.90
4366;DHT22;2196;47.422;9.656;2024-03-22T07:55:27;16.50;99.90
4366;DHT22;2196;47.422;9.656;2024-03-22T07:57:54;16.90;99.90
4366;DHT22;2196;47.422;9.656;2024-03-22T08:00:20;16.90;99.90
4366;DHT22;2196;47.422;9.656;2024-03-22T08:02:47;17.00;99.90
4366;DHT22;2196;47.422;9.656;2024-03-22T08:05:13;17.10;99.90
4366;DHT22;2196;47.422;9.656;2024-03-22T08:07:41;17.60;99.90
4366;DHT22;2196;47.422;9.656;2024-03-22T08:10:09;17.90;99.90
4366;DHT22;2196;47.422;9.656;2024-03-22T08:12:36;18.00;99.90
4366;DHT22;2196;47.422;9.656;2024-03-22T08:15:02;17.90;99.90
4366;DHT22;2196;47.422;9.656;2024-03-22T08:17:29;17.90;99.90
4366;DHT22;2196;47.422;9.656;2024-03-22T08:19:55;18.10;99.90
4366;DHT22;2196;47.422;9.656;2024-03-22T08:22:22;18.20;99.90
4366;DHT22;2196;47.422;9.656;2024-03-22T08:24:50;18.70;99.90
4366;DHT22;2196;47.422;9.656;2024-03-22T08:27:17;18.90;99.90
4366;DHT22;2196;47.422;9.656;2024-03-22T08:29:42;19.10;99.90
4366;DHT22;2196;47.422;9.656;2024-03-22T08:32:09;19.00;99.90
4366;DHT22;2196;47.422;9.656;2024-03-22T08:34:35;19.00;99.90
4366;DHT22;2196;47.422;9.656;2024-03-22T08:37:02;18.80;99.90
4366;DHT22;2196;47.422;9.656;2024-03-22T08:39:29;19.20;99.90
4366;DHT22;2196;47.422;9.656;2024-03-22T08:41:57;18.90;99.90
4366;DHT22;2196;47.422;9.656;2024-03-22T08:44:23;19.30;99.90
4366;DHT22;2196;47.422;9.656;2024-03-22T08:49:17;20.10;99.90
4366;DHT22;2196;47.422;9.656;2024-03-22T08:51:44;20.50;99.90
4366;DHT22;2196;47.422;9.656;2024-03-22T08:54:11;20.50;99.90
4366;DHT22;2196;47.422;9.656;2024-03-22T08:56:38;20.60;99.90
4366;DHT22;2196;47.422;9.656;2024-03-22T08:59:06;21.00;99.90
4366;DHT22;2196;47.422;9.656;2024-03-22T09:01:33;21.00;99.90
4366;DHT22;2196;47.422;9.656;2024-03-22T09:03:59;20.70;99.90
4366;DHT22;2196;47.422;9.656;2024-03-22T09:06:26;20.60;99.90
4366;DHT22;2196;47.422;9.656;2024-03-22T09:08:52;21.00;99.90
4366;DHT22;2196;47.422;9.656;2024-03-22T09:11:20;21.20;99.90
4366;DHT22;2196;47.422;9.656;2024-03-22T09:13:47;21.00;99.90
4366;DHT22;2196;47.422;9.656;2024-03-22T09:16:16;21.30;99.90
4366;DHT22;2196;47.422;9.656;2024-03-22T09:18:42;21.50;99.90
4366;DHT22;2196;47.422;9.656;2024-03-22T09:26:03;21.40;99.90
4366;DHT22;2196;47.422;9.656;2024-03-22T09:28:30;21.70;99.90
4366;DHT22;2196;47.422;9.656;2024-03-22T09:30:57;22.20;99.90
4366;DHT22;2196;47.422;9.656;2024-03-22T09:33:25;22.20;99.90
4366;DHT22;2196;47.422;9.656;2024-03-22T09:35:51;22.00;99.90
4366;DHT22;2196;47.422;9.656;2024-03-22T09:58:02;23.30;99.90
4366;DHT22;2196;47.422;9.656;2024-03-22T10:02:57;23.80;99.90
4366;DHT22;2196;47.422;9.656;2024-03-22T10:05:24;24.60;99.90
4366;DHT22;2196;47.422;9.656;2024-03-22T10:07:53;24.20;99.90
4366;DHT22;2196;47.422;9.656;2024-03-22T10:10:19;24.50;99.90
4366;DHT22;2196;47.422;9.656;2024-03-22T10:12:51;24.80;99.90
4366;DHT22;2196;47.422;9.656;2024-03-22T10:15:19;24.50;99.90
4366;DHT22;2196;47.422;9.656;2024-03-22T10:17:46;24.90;99.90
4366;DHT22;2196;47.422;9.656;2024-03-22T10:20:13;25.10;99.90
4366;DHT22;2196;47.422;9.656;2024-03-22T10:22:42;24.20;99.90
4366;DHT22;2196;47.422;9.656;2024-03-22T10:25:09;24.50;99.90
4366;DHT22;2196;47.422;9.656;2024-03-22T10:27:38;25.00;99.90
4366;DHT22;2196;47.422;9.656;2024-03-22T10:30:08;24.80;99.90
4366;DHT22;2196;47.422;9.656;2024-03-22T10:32:36;24.40;99.90
4366;DHT22;2196;47.422;9.656;2024-03-22T10:52:25;22.10;99.90
4366;DHT22;2196;47.422;9.656;2024-03-22T10:57:18;22.70;99.90
4366;DHT22;2196;47.422;9.656;2024-03-22T10:59:47;22.50;99.90
4366;DHT22;2196;47.422;9.656;2024-03-22T11:09:33;20.90;99.90
4366;DHT22;2196;47.422;9.656;2024-03-22T11:12:00;21.00;99.90
4366;DHT22;2196;47.422;9.656;2024-03-22T11:14:26;20.90;99.90
4366;DHT22;2196;47.422;9.656;2024-03-22T11:16:55;20.40;99.90
4366;DHT22;2196;47.422;9.656;2024-03-22T11:19:21;20.40;99.90
4366;DHT22;2196;47.422;9.656;2024-03-22T11:21:48;20.30;99.90
4366;DHT22;2196;47.422;9.656;2024-03-22T11:24:15;20.20;99.90
4366;DHT22;2196;47.422;9.656;2024-03-22T11:26:42;20.20;99.90
4366;DHT22;2196;47.422;9.656;2024-03-22T11:29:09;20.10;99.90
4366;DHT22;2196;47.422;9.656;2024-03-22T11:31:36;19.90;99.90
4366;DHT22;2196;47.422;9.656;2024-03-22T11:34:04;19.80;99.90
4366;DHT22;2196;47.422;9.656;2024-03-22T11:36:31;18.90;99.90
4366;DHT22;2196;47.422;9.656;2024-03-22T11:38:57;18.80;99.90
4366;DHT22;2196;47.422;9.656;2024-03-22T11:41:26;18.60;99.90
4366;DHT22;2196;47.422;9.656;2024-03-22T11:43:53;18.40;99.90
4366;DHT22;2196;47.422;9.656;2024-03-22T11:46:21;18.50;99.90
4366;DHT22;2196;47.422;9.656;2024-03-22T11:48:51;18.50;99.90
4366;DHT22;2196;47.422;9.656;2024-03-22T11:51:19;18.20;99.90
4366;DHT22;2196;47.422;9.656;2024-03-22T11:53:49;18.20;99.90
4366;DHT22;2196;47.422;9.656;2024-03-22T11:56:18;18.00;99.90
4366;DHT22;2196;47.422;9.656;2024-03-22T11:58:45;18.40;99.90
4366;DHT22;2196;47.422;9.656;2024-03-22T12:01:13;18.50;99.90
4366;DHT22;2196;47.422;9.656;2024-03-22T12:03:40;18.40;99.90
4366;DHT22;2196;47.422;9.656;2024-03-22T12:06:09;18.30;99.90
4366;DHT22;2196;47.422;9.656;2024-03-22T12:13:33;18.40;99.90
4366;DHT22;2196;47.422;9.656;2024-03-22T12:15:59;18.70;99.90
4366;DHT22;2196;47.422;9.656;2024-03-22T12:18:26;18.90;99.90
4366;DHT22;2196;47.422;9.656;2024-03-22T12:20:53;19.10;99.90
4366;DHT22;2196;47.422;9.656;2024-03-22T12:23:19;18.90;99.90
4366;DHT22;2196;47.422;9.656;2024-03-22T12:25:47;18.90;99.90
4366;DHT22;2196;47.422;9.656;2024-03-22T12:28:14;19.00;99.90
4366;DHT22;2196;47.422;9.656;2024-03-22T12:30:40;18.80;99.90
4366;DHT22;2196;47.422;9.656;2024-03-22T12:33:08;18.80;99.90
4366;DHT22;2196;47.422;9.656;2024-03-22T12:35:36;18.60;99.90
4366;DHT22;2196;47.422;9.656;2024-03-22T12:38:03;18.50;99.90
4366;DHT22;2196;47.422;9.656;2024-03-22T12:40:29;18.70;99.90
4366;DHT22;2196;47.422;9.656;2024-03-22T12:42:59;18.80;99.90
4366;DHT22;2196;47.422;9.656;2024-03-22T12:45:25;18.90;99.90
4366;DHT22;2196;47.422;9.656;2024-03-22T12:47:52;18.80;99.90
4366;DHT22;2196;47.422;9.656;2024-03-22T12:50:18;18.90;99.90
4366;DHT22;2196;47.422;9.656;2024-03-22T12:52:45;19.00;99.90
4366;DHT22;2196;47.422;9.656;2024-03-22T12:55:11;19.00;99.90
4366;DHT22;2196;47.422;9.656;2024-03-22T12:57:38;18.90;99.90
4366;DHT22;2196;47.422;9.656;2024-03-22T13:00:08;19.00;99.90
4366;DHT22;2196;47.422;9.656;2024-03-22T13:02:39;19.20;99.90
4366;DHT22;2196;47.422;9.656;2024-03-22T13:05:05;19.30;99.90
4366;DHT22;2196;47.422;9.656;2024-03-22T13:07:32;19.30;99.90
4366;DHT22;2196;47.422;9.656;2024-03-22T13:09:58;19.20;99.90
4366;DHT22;2196;47.422;9.656;2024-03-22T13:12:26;19.40;99.90
4366;DHT22;2196;47.422;9.656;2024-03-22T13:14:54;19.50;99.90
4366;DHT22;2196;47.422;9.656;2024-03-22T13:17:22;19.50;99.90
4366;DHT22;2196;47.422;9.656;2024-03-22T13:19:49;19.20;99.90
4366;DHT22;2196;47.422;9.656;2024-03-22T13:22:15;19.30;99.90
4366;DHT22;2196;47.422;9.656;2024-03-22T13:24:44;19.40;99.90
4366;DHT22;2196;47.422;9.656;2024-03-22T13:27:10;19.20;99.90
4366;DHT22;2196;47.422;9.656;2024-03-22T13:29:38;19.20;99.90
4366;DHT22;2196;47.422;9.656;2024-03-22T13:34:34;19.20;99.90
4366;DHT22;2196;47.422;9.656;2024-03-22T13:37:00;19.10;99.90
4366;DHT22;2196;47.422;9.656;2024-03-22T13:39:27;18.90;99.90
4366;DHT22;2196;47.422;9.656;2024-03-22T13:41:55;19.10;99.90
4366;DHT22;2196;47.422;9.656;2024-03-22T13:44:22;19.10;99.90
4366;DHT22;2196;47.422;9.656;2024-03-22T13:46:49;18.80;99.90
4366;DHT22;2196;47.422;9.656;2024-03-22T13:49:17;18.80;99.90
4366;DHT22;2196;47.422;9.656;2024-03-22T13:54:12;18.90;99.90
4366;DHT22;2196;47.422;9.656;2024-03-22T13:56:38;19.10;99.90
4366;DHT22;2196;47.422;9.656;2024-03-22T13:59:05;19.20;99.90
4366;DHT22;2196;47.422;9.656;2024-03-22T14:01:31;19.20;99.90
4366;DHT22;2196;47.422;9.656;2024-03-22T14:03:58;19.00;99.90
4366;DHT22;2196;47.422;9.656;2024-03-22T14:06:24;18.90;99.90
4366;DHT22;2196;47.422;9.656;2024-03-22T14:08:52;18.90;99.90
4366;DHT22;2196;47.422;9.656;2024-03-22T14:33:35;18.70;99.90
4366;DHT22;2196;47.422;9.656;2024-03-22T14:36:01;18.70;99.90
4366;DHT22;2196;47.422;9.656;2024-03-22T14:38:28;18.80;99.90
4366;DHT22;2196;47.422;9.656;2024-03-22T14:40:54;18.90;99.90
4366;DHT22;2196;47.422;9.656;2024-03-22T14:43:23;18.80;99.90
4366;DHT22;2196;47.422;9.656;2024-03-22T14:45:50;18.90;99.90
4366;DHT22;2196;47.422;9.656;2024-03-22T14:48:18;18.90;99.90
4366;DHT22;2196;47.422;9.656;2024-03-22T14:50:44;19.00;99.90
4366;DHT22;2196;47.422;9.656;2024-03-22T14:53:11;19.00;99.90
4366;DHT22;2196;47.422;9.656;2024-03-22T14:55:37;18.90;99.90
4366;DHT22;2196;47.422;9.656;2024-03-22T14:58:05;19.00;99.90
4366;DHT22;2196;47.422;9.656;2024-03-22T15:00:33;19.10;99.90
4366;DHT22;2196;47.422;9.656;2024-03-22T15:03:00;18.90;99.90
4366;DHT22;2196;47.422;9.656;2024-03-22T15:05:26;18.80;99.90
4366;DHT22;2196;47.422;9.656;2024-03-22T15:07:53;18.80;99.90
4366;DHT22;2196;47.422;9.656;2024-03-22T15:10:19;18.80;99.90
4366;DHT22;2196;47.422;9.656;2024-03-22T15:12:53;18.70;99.90
4366;DHT22;2196;47.422;9.656;2024-03-22T15:15:20;18.70;99.90
4366;DHT22;2196;47.422;9.656;2024-03-22T15:20:18;18.80;99.90
4366;DHT22;2196;47.422;9.656;2024-03-22T15:22:49;18.90;99.90
4366;DHT22;2196;47.422;9.656;2024-03-22T15:27:43;18.80;99.90
4366;DHT22;2196;47.422;9.656;2024-03-22T15:30:10;18.70;99.90
4366;DHT22;2196;47.422;9.656;2024-03-22T15:32:37;18.60;99.90
4366;DHT22;2196;47.422;9.656;2024-03-22T15:35:05;18.50;99.90
4366;DHT22;2196;47.422;9.656;2024-03-22T15:37:32;18.60;99.90
4366;DHT22;2196;47.422;9.656;2024-03-22T16:24:07;17.40;99.90
4366;DHT22;2196;47.422;9.656;2024-03-22T16:26:37;17.50;99.90
4366;DHT22;2196;47.422;9.656;2024-03-22T16:29:03;17.40;99.90
4366;DHT22;2196;47.422;9.656;2024-03-22T16:31:30;17.40;99.90
4366;DHT22;2196;47.422;9.656;2024-03-22T16:33:56;17.40;99.90
4366;DHT22;2196;47.422;9.656;2024-03-22T16:36:23;17.40;99.90
4366;DHT22;2196;47.422;9.656;2024-03-22T16:38:49;17.30;99.90
4366;DHT22;2196;47.422;9.656;2024-03-22T16:41:16;17.20;99.90
4366;DHT22;2196;47.422;9.656;2024-03-22T16:43:43;17.20;99.90
4366;DHT22;2196;47.422;9.656;2024-03-22T16:46:10;17.20;99.90
4366;DHT22;2196;47.422;9.656;2024-03-22T16:48:36;17.10;99.90
4366;DHT22;2196;47.422;9.656;2024-03-22T16:51:03;17.10;99.90
4366;DHT22;2196;47.422;9.656;2024-03-22T16:53:30;17.00;99.90
4366;DHT22;2196;47.422;9.656;2024-03-22T16:55:57;16.80;99.90
4366;DHT22;2196;47.422;9.656;2024-03-22T16:58:23;16.80;99.90
4366;DHT22;2196;47.422;9.656;2024-03-22T17:00:53;16.70;99.90
4366;DHT22;2196;47.422;9.656;2024-03-22T17:03:20;16.60;99.90
4366;DHT22;2196;47.422;9.656;2024-03-22T17:05:47;16.60;99.90
4366;DHT22;2196;47.422;9.656;2024-03-22T17:08:13;16.50;99.90
4366;DHT22;2196;47.422;9.656;2024-03-22T17:10:41;16.40;99.90
4366;DHT22;2196;47.422;9.656;2024-03-22T17:15:34;16.20;99.90
4366;DHT22;2196;47.422;9.656;2024-03-22T17:20:29;16.10;99.90
4366;DHT22;2196;47.422;9.656;2024-03-22T17:22:56;15.90;99.90
4366;DHT22;2196;47.422;9.656;2024-03-22T17:27:52;15.70;99.90
4366;DHT22;2196;47.422;9.656;2024-03-22T17:30:19;15.60;99.90
4366;DHT22;2196;47.422;9.656;2024-03-22T17:32:49;15.60;99.90
4366;DHT22;2196;47.422;9.656;2024-03-22T17:35:17;15.50;99.90
4366;DHT22;2196;47.422;9.656;2024-03-22T17:37:43;15.50;99.90
4366;DHT22;2196;47.422;9.656;2024-03-22T17:40:11;15.40;99.90
4366;DHT22;2196;47.422;9.656;2024-03-22T17:42:40;15.40;99.90
4366;DHT22;2196;47.422;9.656;2024-03-22T17:45:07;15.20;99.90
4366;DHT22;2196;47.422;9.656;2024-03-22T17:47:33;15.20;99.90
4366;DHT22;2196;47.422;9.656;2024-03-22T17:50:00;15.20;99.90
4366;DHT22;2196;47.422;9.656;2024-03-22T17:52:30;15.10;99.90
4366;DHT22;2196;47.422;9.656;2024-03-22T17:54:57;15.10;99.90
4366;DHT22;2196;47.422;9.656;2024-03-22T17:57:23;15.00;99.90
4366;DHT22;2196;47.422;9.656;2024-03-22T17:59:53;15.00;99.90
4366;DHT22;2196;47.422;9.656;2024-03-22T18:02:19;15.00;99.90
4366;DHT22;2196;47.422;9.656;2024-03-22T18:04:46;14.90;99.90
4366;DHT22;2196;47.422;9.656;2024-03-22T18:07:12;14.80;99.90
4366;DHT22;2196;47.422;9.656;2024-03-22T18:09:40;14.80;99.90
4366;DHT22;2196;47.422;9.656;2024-03-22T18:12:07;14.70;99.90
4366;DHT22;2196;47.422;9.656;2024-03-22T18:14:34;14.60;99.90
4366;DHT22;2196;47.422;9.656;2024-03-22T18:17:00;14.60;99.90
4366;DHT22;2196;47.422;9.656;2024-03-22T18:19:29;14.50;99.90
4366;DHT22;2196;47.422;9.656;2024-03-22T18:21:55;14.50;99.90
4366;DHT22;2196;47.422;9.656;2024-03-22T18:24:22;14.40;99.90
4366;DHT22;2196;47.422;9.656;2024-03-22T18:26:50;14.40;99.90
4366;DHT22;2196;47.422;9.656;2024-03-22T18:29:17;14.40;99.90
4366;DHT22;2196;47.422;9.656;2024-03-22T18:31:43;14.40;99.90
4366;DHT22;2196;47.422;9.656;2024-03-22T18:34:10;14.40;99.90